Time;durP1;ratioP1;P1;durP2;ratioP2;P2;SDS_P1;SDS_P2;PMS_P1;PMS_P2;Temp;Humidity;BMP_temperature;BMP_pressure;BME280_temperature;BME280_humidity;BME280_pressure;Samples;Min_cycle;Max_cycle;Signal;HPM_P1;HPM_P2
2021/07/08 00:00:27;;;;;;;14.63;9.30;;;;;;;26.32;42.87;100644.22;4416814;32;20153;-88
2021/07/08 00:02:53;;;;;;;15.30;8.38;;;;;;;26.29;43.28;100641.66;4414920;32;20391;-89
2021/07/08 00:05:22;;;;;;;15.48;9.77;;;;;;;26.06;43.29;100640.47;4398701;32;20088;-90
2021/07/08 00:07:48;;;;;;;15.15;8.82;;;;;;;26.18;43.20;100633.19;4419256;32;20064;-90
2021/07/08 00:10:19;;;;;;;10.93;7.87;;;;;;;26.07;43.25;100642.78;4399578;32;20409;-89
2021/07/08 00:12:45;;;;;;;13.70;9.02;;;;;;;26.11;43.12;100642.47;4410164;32;20068;-91
2021/07/08 00:15:14;;;;;;;12.40;8.60;;;;;;;25.92;43.37;100642.47;4417418;32;20038;-90
2021/07/08 00:17:40;;;;;;;12.18;7.82;;;;;;;26.15;43.12;100643.72;4402479;32;20097;-90
2021/07/08 00:20:10;;;;;;;11.90;7.55;;;;;;;25.78;43.75;100652.41;4416159;32;20038;-90
2021/07/08 00:22:36;;;;;;;12.55;8.40;;;;;;;26.22;42.78;100648.06;4415077;32;20481;-91
2021/07/08 00:25:10;;;;;;;14.77;7.50;;;;;;;26.05;42.88;100642.56;4419083;32;20044;-90
2021/07/08 00:27:36;;;;;;;11.35;8.07;;;;;;;26.26;42.53;100642.75;4413359;32;20490;-90
2021/07/08 00:30:04;;;;;;;12.63;9.18;;;;;;;25.92;42.95;100639.59;4401501;32;20439;-90
2021/07/08 00:32:30;;;;;;;18.60;8.73;;;;;;;26.23;42.83;100649.63;4418195;32;20080;-89
2021/07/08 00:34:55;;;;;;;13.02;8.30;;;;;;;25.96;43.38;100642.16;4426577;32;20387;-91
2021/07/08 00:37:21;;;;;;;14.65;8.82;;;;;;;25.95;42.92;100655.78;4410509;32;20031;-90
2021/07/08 00:39:47;;;;;;;11.57;7.85;;;;;;;25.97;43.11;100653.16;4403393;32;20033;-91
2021/07/08 00:42:13;;;;;;;12.52;8.88;;;;;;;25.95;43.39;100652.91;4414488;32;20498;-90
2021/07/08 00:44:39;;;;;;;11.45;8.23;;;;;;;25.96;43.58;100653.69;4417710;32;20085;-91
2021/07/08 00:47:06;;;;;;;15.07;8.27;;;;;;;25.88;43.52;100649.88;4412861;32;20038;-90
2021/07/08 00:49:32;;;;;;;14.57;9.05;;;;;;;25.92;43.46;100651.13;4416612;32;20025;-89
2021/07/08 00:51:58;;;;;;;15.80;8.30;;;;;;;25.89;43.33;100649.34;4412512;32;20593;-90
2021/07/08 00:54:24;;;;;;;15.75;9.45;;;;;;;25.79;43.37;100653.94;4414470;32;20089;-90
2021/07/08 00:56:50;;;;;;;13.18;9.25;;;;;;;25.75;43.30;100644.06;4414865;32;20451;-90
2021/07/08 00:59:16;;;;;;;14.95;9.25;;;;;;;25.78;43.14;100646.63;4419713;32;20129;-92
2021/07/08 01:01:43;;;;;;;14.65;9.38;;;;;;;25.73;43.08;100647.47;4417870;32;20049;-91
2021/07/08 01:04:10;;;;;;;16.48;9.57;;;;;;;25.86;43.12;100641.03;4411569;32;20074;-88
2021/07/08 01:06:40;;;;;;;16.52;9.80;;;;;;;25.91;42.94;100637.25;4415035;32;20045;-91
2021/07/08 01:09:06;;;;;;;14.52;9.88;;;;;;;25.67;43.24;100643.91;4414718;32;20038;-92
2021/07/08 01:11:32;;;;;;;13.77;10.07;;;;;;;25.56;43.55;100649.06;4413577;32;20127;-91
2021/07/08 01:13:58;;;;;;;15.20;9.98;;;;;;;25.31;43.91;100657.75;4411800;32;20046;-92
2021/07/08 01:16:26;;;;;;;15.70;9.65;;;;;;;25.34;43.93;100647.22;4413573;32;20056;-89
2021/07/08 01:18:52;;;;;;;15.95;9.65;;;;;;;25.19;44.34;100649.78;4419255;32;20048;-88
2021/07/08 01:21:24;;;;;;;15.25;10.70;;;;;;;25.26;44.30;100649.94;4417705;32;20037;-89
2021/07/08 01:23:49;;;;;;;15.15;10.25;;;;;;;25.45;43.97;100646.31;4413524;32;20084;-89
2021/07/08 01:26:15;;;;;;;13.80;10.13;;;;;;;25.15;44.40;100655.03;4401374;32;20061;-92
2021/07/08 01:28:43;;;;;;;14.77;9.85;;;;;;;25.31;44.03;100652.00;4407327;32;20373;-91
2021/07/08 01:31:09;;;;;;;14.80;10.07;;;;;;;25.18;44.27;100653.97;4408151;32;20089;-90
2021/07/08 01:33:34;;;;;;;16.87;9.80;;;;;;;25.04;44.50;100667.47;4410005;32;20159;-89
2021/07/08 01:36:01;;;;;;;17.25;10.02;;;;;;;25.08;44.38;100662.22;4416458;32;20113;-90
2021/07/08 01:38:27;;;;;;;16.77;10.23;;;;;;;25.34;43.86;100664.50;4412068;32;20042;-90
2021/07/08 01:40:53;;;;;;;14.93;9.88;;;;;;;25.28;43.96;100664.56;4396283;32;20022;-90
2021/07/08 01:43:20;;;;;;;13.73;9.52;;;;;;;25.50;43.42;100677.94;4413396;32;20114;-88
2021/07/08 01:45:45;;;;;;;16.30;9.43;;;;;;;25.66;43.02;100679.81;4416285;32;20467;-89
2021/07/08 01:48:12;;;;;;;15.25;9.35;;;;;;;25.68;42.94;100671.41;4419648;32;20068;-93
2021/07/08 01:50:38;;;;;;;17.48;9.60;;;;;;;25.80;42.43;100681.44;4413387;32;20034;-90
2021/07/08 01:53:04;;;;;;;12.32;9.02;;;;;;;25.89;42.58;100677.41;4427322;32;20442;-89
2021/07/08 01:55:30;;;;;;;12.60;8.95;;;;;;;25.87;42.74;100674.28;4418894;32;20101;-89
2021/07/08 01:57:57;;;;;;;11.00;8.38;;;;;;;25.70;42.75;100685.25;4417605;32;20037;-90
2021/07/08 02:00:24;;;;;;;14.77;8.23;;;;;;;25.68;42.75;100679.28;4421394;32;20088;-90
2021/07/08 02:02:52;;;;;;;15.77;9.80;;;;;;;25.73;42.78;100681.28;4403674;32;20072;-91
2021/07/08 02:05:21;;;;;;;15.63;10.18;;;;;;;25.93;42.48;100683.63;4420373;32;20060;-93
2021/07/08 02:07:47;;;;;;;15.73;9.02;;;;;;;25.89;42.69;100686.06;4411963;32;20109;-90
2021/07/08 02:10:16;;;;;;;12.13;8.80;;;;;;;25.67;43.32;100681.37;4412044;32;20078;-90
2021/07/08 02:12:43;;;;;;;14.93;8.95;;;;;;;25.83;43.18;100685.34;4413719;32;20049;-89
2021/07/08 02:15:11;;;;;;;15.13;9.45;;;;;;;25.57;43.49;100685.19;4419637;32;20073;-89
2021/07/08 02:17:38;;;;;;;13.90;8.60;;;;;;;25.75;42.89;100684.41;4420504;32;20118;-91
2021/07/08 02:20:07;;;;;;;15.82;8.52;;;;;;;25.60;43.27;100681.22;4416647;32;20070;-90
2021/07/08 02:22:33;;;;;;;14.45;9.20;;;;;;;25.65;43.31;100681.16;4410277;32;20034;-91
2021/07/08 02:24:59;;;;;;;12.00;8.23;;;;;;;25.52;43.12;100678.16;4416072;32;20091;-91
2021/07/08 02:27:25;;;;;;;13.35;8.60;;;;;;;25.60;43.21;100679.12;4412065;32;20126;-90
2021/07/08 02:29:52;;;;;;;12.82;8.95;;;;;;;25.45;43.48;100673.03;4419700;32;20038;-91
2021/07/08 02:32:17;;;;;;;14.98;9.02;;;;;;;25.36;43.39;100684.94;4401420;32;20452;-89
2021/07/08 02:34:43;;;;;;;14.77;8.60;;;;;;;25.56;42.99;100680.75;4409421;32;20052;-92
2021/07/08 02:37:10;;;;;;;14.10;9.18;;;;;;;25.37;43.36;100675.75;4398200;32;20319;-91
2021/07/08 02:39:36;;;;;;;14.15;9.10;;;;;;;25.45;43.12;100675.13;4410907;32;20461;-90
2021/07/08 02:42:03;;;;;;;13.35;9.60;;;;;;;25.54;43.31;100680.50;4413701;32;20063;-91
2021/07/08 02:44:29;;;;;;;12.55;9.20;;;;;;;25.65;42.96;100680.38;4413708;32;20127;-89
2021/07/08 02:46:55;;;;;;;12.27;9.23;;;;;;;25.46;43.22;100686.09;4417175;32;20049;-91
2021/07/08 02:49:20;;;;;;;16.50;10.15;;;;;;;25.23;43.53;100685.59;4416588;32;20046;-90
2021/07/08 02:51:47;;;;;;;13.93;9.70;;;;;;;25.31;43.44;100691.50;4416596;32;20706;-88
2021/07/08 02:54:12;;;;;;;15.13;10.27;;;;;;;25.55;43.15;100693.63;4411117;32;20038;-92
2021/07/08 02:56:38;;;;;;;15.38;9.90;;;;;;;25.50;43.40;100698.13;4421078;32;20166;-89
2021/07/08 02:59:04;;;;;;;14.32;8.95;;;;;;;25.30;43.54;100692.84;4424670;32;20038;-89
2021/07/08 03:01:30;;;;;;;16.10;9.93;;;;;;;25.53;43.28;100693.38;4402819;32;20092;-88
2021/07/08 03:03:56;;;;;;;15.00;9.50;;;;;;;25.50;43.17;100709.66;4417275;32;20073;-91
2021/07/08 03:06:21;;;;;;;12.23;8.75;;;;;;;25.47;43.18;100704.19;4419326;32;20026;-90
2021/07/08 03:08:47;;;;;;;13.35;9.27;;;;;;;25.55;42.94;100703.03;4415343;32;20069;-93
2021/07/08 03:11:13;;;;;;;14.43;9.05;;;;;;;25.66;42.66;100705.75;4417394;32;20095;-89
2021/07/08 03:13:39;;;;;;;14.52;9.48;;;;;;;25.69;42.62;100707.56;4415474;32;20081;-89
2021/07/08 03:16:06;;;;;;;15.18;8.90;;;;;;;25.72;42.67;100703.59;4415463;32;20145;-92
2021/07/08 03:18:31;;;;;;;16.40;9.52;;;;;;;25.76;42.56;100717.69;4412647;32;20106;-90
2021/07/08 03:20:58;;;;;;;12.80;9.10;;;;;;;25.72;42.57;100711.44;4420417;32;20081;-92
2021/07/08 03:23:23;;;;;;;16.40;9.32;;;;;;;25.85;42.68;100715.19;4419788;32;20030;-90
2021/07/08 03:25:49;;;;;;;12.88;9.07;;;;;;;25.90;42.76;100722.22;4415112;32;20462;-91
2021/07/08 03:28:15;;;;;;;14.25;9.73;;;;;;;25.88;42.71;100728.53;4415084;32;20033;-90
2021/07/08 03:30:41;;;;;;;12.65;9.32;;;;;;;26.06;42.61;100727.78;4414686;32;20037;-91
2021/07/08 03:33:07;;;;;;;16.95;9.45;;;;;;;26.04;42.62;100730.41;4415976;32;20100;-91
2021/07/08 03:35:33;;;;;;;15.85;9.55;;;;;;;25.97;42.50;100733.91;4402392;32;20029;-90
2021/07/08 03:38:00;;;;;;;14.75;9.80;;;;;;;25.96;42.48;100729.47;4418455;32;20146;-90
2021/07/08 03:40:28;;;;;;;13.88;9.20;;;;;;;25.91;42.57;100729.53;4403840;32;20030;-90
2021/07/08 03:42:54;;;;;;;11.70;9.05;;;;;;;26.01;42.22;100733.62;4411236;32;20101;-90
2021/07/08 03:45:20;;;;;;;13.88;9.05;;;;;;;26.03;42.15;100736.72;4415925;32;20097;-92
2021/07/08 03:47:46;;;;;;;15.15;9.63;;;;;;;26.24;41.84;100734.84;4416691;32;20384;-91
2021/07/08 03:50:13;;;;;;;14.23;10.25;;;;;;;26.06;41.92;100732.75;4415411;32;20030;-92
2021/07/08 03:52:42;;;;;;;18.12;10.05;;;;;;;26.24;41.58;100743.50;4404267;32;20502;-89
2021/07/08 03:55:13;;;;;;;15.27;9.50;;;;;;;26.37;41.42;100744.34;4421417;32;20038;-90
2021/07/08 03:57:52;;;;;;;14.38;8.95;;;;;;;26.62;40.99;100733.47;4413014;32;20045;-89
2021/07/08 04:00:21;;;;;;;14.07;9.50;;;;;;;26.25;41.81;100740.06;4419705;32;20081;-90
2021/07/08 04:02:46;;;;;;;13.57;9.02;;;;;;;26.69;nan;100750.16;4412894;32;20121;-91
2021/07/08 04:05:13;;;;;;;13.10;9.60;;;;;;;26.43;41.58;100750.00;4419206;32;20073;-93
2021/07/08 04:07:38;;;;;;;14.75;9.25;;;;;;;26.57;41.45;100740.09;4415728;32;20033;-90
2021/07/08 04:10:05;;;;;;;13.85;9.30;;;;;;;26.46;41.50;100758.38;4409038;32;20545;-89
2021/07/08 04:12:30;;;;;;;14.85;9.35;;;;;;;26.56;41.64;100750.84;4416134;32;20038;-91
2021/07/08 04:14:56;;;;;;;14.13;9.18;;;;;;;26.50;41.50;100760.91;4418016;32;20034;-90
2021/07/08 04:17:23;;;;;;;15.85;9.52;;;;;;;26.55;41.52;100757.97;4412736;32;20534;-89
2021/07/08 04:19:48;;;;;;;22.52;10.25;;;;;;;26.53;41.55;100751.94;4415479;32;20053;-91
2021/07/08 04:22:14;;;;;;;13.98;10.15;;;;;;;26.57;41.34;100751.63;4413066;32;20053;-91
2021/07/08 04:24:40;;;;;;;15.90;10.60;;;;;;;26.47;41.89;100756.25;4411656;32;20643;-91
2021/07/08 04:27:06;;;;;;;15.68;9.65;;;;;;;26.76;40.97;100755.28;4401276;32;20053;-88
2021/07/08 04:29:32;;;;;;;13.62;9.38;;;;;;;26.84;40.81;100762.72;4415443;32;20082;-89
2021/07/08 04:31:58;;;;;;;13.07;8.88;;;;;;;26.89;40.85;100755.31;4411653;32;20402;-91
2021/07/08 04:34:25;;;;;;;14.00;9.90;;;;;;;26.89;40.63;100764.75;4417281;32;20065;-90
2021/07/08 04:36:51;;;;;;;13.05;8.07;;;;;;;26.95;40.89;100761.75;4416281;32;20030;-91
2021/07/08 04:39:17;;;;;;;15.30;8.77;;;;;;;27.07;40.27;100766.78;4413061;32;20179;-93
2021/07/08 04:41:43;;;;;;;18.37;8.73;;;;;;;27.02;39.99;100769.75;4419140;32;20104;-90
2021/07/08 04:44:09;;;;;;;15.90;8.05;;;;;;;27.10;39.70;100767.78;4420613;32;20085;-89
2021/07/08 04:46:35;;;;;;;15.63;9.32;;;;;;;27.00;39.51;100776.09;4416992;32;20042;-90
2021/07/08 04:49:00;;;;;;;12.15;8.40;;;;;;;26.99;39.92;100773.75;4419702;32;20042;-90
2021/07/08 04:51:27;;;;;;;14.60;9.13;;;;;;;27.08;39.56;100776.22;4416412;32;20117;-91
2021/07/08 04:53:53;;;;;;;13.05;7.97;;;;;;;27.22;39.58;100798.81;4410428;32;20066;-91
2021/07/08 04:56:18;;;;;;;11.30;8.00;;;;;;;27.36;39.16;100799.63;4410641;32;20154;-90
2021/07/08 04:58:44;;;;;;;12.73;7.78;;;;;;;27.28;38.92;100795.84;4418029;32;20095;-90
2021/07/08 05:01:10;;;;;;;10.57;8.18;;;;;;;27.33;39.00;100797.09;4417603;32;20050;-90
2021/07/08 05:03:36;;;;;;;12.65;8.43;;;;;;;27.41;39.12;100797.97;4414201;32;20827;-89
2021/07/08 05:06:02;;;;;;;15.70;7.85;;;;;;;27.45;38.74;100807.09;4423130;32;20148;-89
2021/07/08 05:08:28;;;;;;;14.50;7.70;;;;;;;27.59;38.66;100809.44;4403534;32;20065;-90
2021/07/08 05:10:54;;;;;;;14.05;8.15;;;;;;;27.41;38.45;100810.31;4410691;32;20196;-90
2021/07/08 05:13:19;;;;;;;11.93;7.20;;;;;;;27.49;38.40;100814.13;4413311;32;20081;-90
2021/07/08 05:15:45;;;;;;;11.60;8.02;;;;;;;27.67;38.07;100807.44;4422001;32;20069;-90
2021/07/08 05:18:11;;;;;;;15.00;7.70;;;;;;;27.62;37.94;100807.53;4420239;32;20034;-90
2021/07/08 05:20:38;;;;;;;15.43;8.35;;;;;;;27.51;38.11;100808.53;4421900;32;20121;-91
2021/07/08 05:23:13;;;;;;;11.07;6.97;;;;;;;27.41;38.45;100812.41;4411308;32;20057;-90
2021/07/08 05:25:40;;;;;;;13.50;7.55;;;;;;;27.44;38.35;100811.31;4401025;32;20091;-90
2021/07/08 05:28:05;;;;;;;11.40;6.93;;;;;;;27.21;39.10;100808.03;4411517;32;20092;-90
2021/07/08 05:30:31;;;;;;;9.65;5.95;;;;;;;26.93;39.38;100817.19;4420245;32;20354;-91
2021/07/08 05:32:57;;;;;;;11.32;6.75;;;;;;;26.65;39.73;100822.66;4408373;32;20045;-89
2021/07/08 05:35:23;;;;;;;13.85;6.70;;;;;;;26.80;39.50;100819.25;4413066;32;20084;-92
2021/07/08 05:37:49;;;;;;;12.23;6.70;;;;;;;26.74;39.78;100822.25;4411082;32;20143;-89
2021/07/08 05:40:17;;;;;;;9.50;6.55;;;;;;;26.67;39.72;100822.09;4411912;32;20035;-91
2021/07/08 05:42:43;;;;;;;9.23;6.05;;;;;;;26.51;40.15;100820.22;4414105;32;20076;-90
2021/07/08 05:45:09;;;;;;;14.50;6.47;;;;;;;26.38;40.46;100826.69;4413916;32;20041;-90
2021/07/08 05:47:35;;;;;;;12.77;7.18;;;;;;;26.57;39.91;100820.91;4412253;32;20400;-89
2021/07/08 05:50:02;;;;;;;12.10;6.53;;;;;;;26.39;40.39;100819.63;4410789;32;20103;-90
2021/07/08 05:52:28;;;;;;;13.07;7.20;;;;;;;26.47;40.56;100820.53;4398495;32;20046;-90
2021/07/08 05:54:54;;;;;;;15.35;7.30;;;;;;;26.47;40.59;100826.28;4412590;32;20073;-91
2021/07/08 05:57:20;;;;;;;9.32;6.22;;;;;;;26.68;40.30;100827.31;4413445;32;20086;-90
2021/07/08 05:59:46;;;;;;;11.05;6.87;;;;;;;26.59;40.32;100835.56;4409843;32;20432;-90
2021/07/08 06:02:12;;;;;;;11.20;6.07;;;;;;;26.68;40.31;100840.97;4414608;32;20080;-90
2021/07/08 06:04:38;;;;;;;11.85;7.78;;;;;;;26.77;39.92;100834.78;4400973;32;20045;-89
2021/07/08 06:07:04;;;;;;;8.52;6.18;;;;;;;27.12;39.53;100848.94;4402824;32;20739;-90
2021/07/08 06:09:29;;;;;;;12.23;7.20;;;;;;;27.16;39.36;100847.25;4404786;32;20135;-90
2021/07/08 06:11:56;;;;;;;6.90;5.72;;;;;;;27.11;39.16;100841.56;4400419;32;20038;-90
2021/07/08 06:14:21;;;;;;;9.07;6.68;;;;;;;27.05;39.28;100853.22;4414418;32;20030;-90
2021/07/08 06:16:47;;;;;;;10.50;6.28;;;;;;;27.37;38.71;100849.56;4415108;32;20076;-89
2021/07/08 06:19:14;;;;;;;12.80;6.60;;;;;;;27.22;39.01;100855.84;4417118;32;20025;-92
2021/07/08 06:21:39;;;;;;;10.23;6.72;;;;;;;27.42;38.75;100858.13;4420409;32;20114;-90
2021/07/08 06:24:08;;;;;;;15.23;6.20;;;;;;;27.19;39.13;100856.94;4414545;32;20377;-90
2021/07/08 06:26:34;;;;;;;11.77;5.55;;;;;;;27.31;39.02;100858.34;4417735;32;20112;-90
2021/07/08 06:29:01;;;;;;;9.88;6.05;;;;;;;27.03;39.35;100861.66;4414727;32;20099;-91
2021/07/08 06:31:27;;;;;;;9.68;6.15;;;;;;;27.30;39.06;100871.19;4422535;32;20040;-90
2021/07/08 06:33:52;;;;;;;8.77;5.12;;;;;;;27.19;39.28;100874.28;4420628;32;20095;-89
2021/07/08 06:36:18;;;;;;;6.93;4.87;;;;;;;27.53;38.01;100869.47;4403730;32;20068;-91
2021/07/08 06:38:44;;;;;;;7.45;4.43;;;;;;;27.48;37.98;100873.25;4403972;32;20046;-90
2021/07/08 06:41:10;;;;;;;7.12;4.00;;;;;;;27.34;38.08;100868.78;4409601;32;20140;-90
2021/07/08 06:43:36;;;;;;;6.12;4.43;;;;;;;27.48;37.86;100873.25;4423281;32;20045;-89
2021/07/08 06:46:02;;;;;;;10.98;4.32;;;;;;;27.58;37.62;100879.38;4399420;32;20077;-90
2021/07/08 06:48:28;;;;;;;5.80;3.95;;;;;;;27.93;36.89;100882.66;4413263;32;20453;-90
2021/07/08 06:50:54;;;;;;;6.80;4.45;;;;;;;28.12;36.44;100876.75;4411712;32;20124;-90
2021/07/08 06:53:19;;;;;;;7.00;4.28;;;;;;;28.24;36.29;100872.28;4413150;32;20077;-91
2021/07/08 06:55:45;;;;;;;4.95;3.45;;;;;;;28.18;36.13;100871.63;4412092;32;20077;-92
2021/07/08 06:58:11;;;;;;;7.45;4.00;;;;;;;28.22;35.75;100883.66;4414068;32;20045;-91
2021/07/08 07:00:38;;;;;;;7.07;4.37;;;;;;;28.37;36.19;100889.62;4417551;32;20072;-92
2021/07/08 07:03:06;;;;;;;6.32;3.42;;;;;;;28.63;35.60;100878.03;4403076;32;20771;-90
2021/07/08 07:05:33;;;;;;;6.37;3.97;;;;;;;28.88;35.27;100885.84;4413837;32;20072;-90
2021/07/08 07:07:59;;;;;;;5.43;3.47;;;;;;;29.02;35.12;100887.34;4406189;32;20105;-90
2021/07/08 07:10:27;;;;;;;5.35;3.50;;;;;;;28.82;34.70;100887.31;4413678;32;20051;-91
2021/07/08 07:12:56;;;;;;;4.40;3.40;;;;;;;29.18;33.97;100887.53;4409948;32;20064;-90
2021/07/08 07:15:24;;;;;;;6.60;3.53;;;;;;;29.22;34.48;100894.53;4406863;32;20068;-91
2021/07/08 07:17:50;;;;;;;6.47;3.60;;;;;;;29.22;33.97;100899.53;4416600;32;20111;-90
2021/07/08 07:20:18;;;;;;;4.90;3.42;;;;;;;29.21;33.98;100895.09;4415866;32;20439;-91
2021/07/08 07:22:45;;;;;;;4.95;3.40;;;;;;;29.36;34.09;100895.97;4396110;32;20678;-90
2021/07/08 07:25:13;;;;;;;6.35;3.42;;;;;;;29.38;33.15;100898.31;4410743;32;20535;-90
2021/07/08 07:27:40;;;;;;;4.82;3.42;;;;;;;29.49;33.57;100900.94;4417699;32;20123;-90
2021/07/08 07:30:06;;;;;;;7.90;3.15;;;;;;;29.44;34.00;100901.84;4411476;32;20068;-91
2021/07/08 07:32:33;;;;;;;7.28;3.53;;;;;;;29.36;33.52;100903.94;4412647;32;20034;-91
2021/07/08 07:34:59;;;;;;;5.72;3.25;;;;;;;29.57;32.91;100904.69;4415387;32;20085;-91
2021/07/08 07:37:25;;;;;;;8.90;3.62;;;;;;;29.44;33.17;100904.75;4415158;32;20103;-91
2021/07/08 07:39:51;;;;;;;6.85;3.40;;;;;;;29.54;33.34;100908.72;4413870;32;20055;-90
2021/07/08 07:42:19;;;;;;;6.00;3.35;;;;;;;29.77;33.35;100915.50;4415460;32;20096;-92
2021/07/08 07:44:47;;;;;;;6.28;4.12;;;;;;;30.13;32.94;100913.44;4410649;32;20202;-91
2021/07/08 07:47:15;;;;;;;8.07;4.32;;;;;;;29.64;33.24;100916.38;4411285;32;20083;-91
2021/07/08 07:49:42;;;;;;;4.87;3.37;;;;;;;29.65;33.46;100915.03;4399246;32;20054;-92
2021/07/08 07:52:11;;;;;;;3.85;3.55;;;;;;;30.06;32.79;100909.13;4416323;32;20141;-91
2021/07/08 07:54:37;;;;;;;11.25;4.10;;;;;;;30.17;32.39;100913.84;4415078;32;20227;-91
2021/07/08 07:57:05;;;;;;;3.87;3.30;;;;;;;30.38;32.16;100918.25;4414177;32;20037;-90
2021/07/08 07:59:32;;;;;;;5.20;3.50;;;;;;;30.83;31.20;100927.19;4412959;32;20056;-92
2021/07/08 08:01:58;;;;;;;6.10;3.40;;;;;;;31.00;31.40;100922.97;4408615;32;20119;-90
2021/07/08 08:04:29;;;;;;;3.75;2.65;;;;;;;30.99;31.02;100930.12;4406391;32;20466;-90
2021/07/08 08:09:42;;;;;;;5.12;3.40;;;;;;;30.98;30.59;100929.34;4395475;32;20107;-93
2021/07/08 08:12:09;;;;;;;4.43;3.10;;;;;;;31.15;30.68;100932.50;4395731;32;20385;-90
2021/07/08 08:14:35;;;;;;;6.15;3.50;;;;;;;31.04;30.86;100935.00;4407157;32;20502;-93
2021/07/08 08:17:02;;;;;;;6.95;3.83;;;;;;;30.95;31.11;100942.13;4420606;32;20053;-92
2021/07/08 08:19:28;;;;;;;9.65;3.50;;;;;;;30.83;31.26;100945.97;4407909;32;20107;-89
2021/07/08 08:22:00;;;;;;;4.62;3.62;;;;;;;30.65;31.12;100944.91;4408417;32;20455;-90
2021/07/08 08:24:26;;;;;;;4.90;3.53;;;;;;;30.64;31.20;100944.12;4397294;32;20475;-90
2021/07/08 08:26:52;;;;;;;5.62;3.55;;;;;;;30.44;31.21;100950.03;4407358;32;20049;-90
2021/07/08 08:29:20;;;;;;;5.85;3.53;;;;;;;30.64;31.00;100943.34;4409239;32;20046;-91
2021/07/08 08:31:46;;;;;;;6.78;3.78;;;;;;;31.31;30.31;100954.47;4411662;32;20061;-92
2021/07/08 08:34:13;;;;;;;4.90;3.35;;;;;;;31.66;29.72;100953.53;4406822;32;20065;-90
2021/07/08 08:36:39;;;;;;;5.65;3.53;;;;;;;31.95;29.38;100954.91;4408014;32;20138;-91
2021/07/08 08:39:06;;;;;;;5.32;3.75;;;;;;;31.85;29.15;100944.44;4411397;32;20089;-90
2021/07/08 08:41:37;;;;;;;8.32;4.10;;;;;;;32.03;29.41;100949.84;4396719;32;20108;-89
2021/07/08 08:44:04;;;;;;;8.85;3.90;;;;;;;32.15;29.16;100953.91;4407744;32;20140;-90
2021/07/08 08:46:33;;;;;;;9.80;4.72;;;;;;;32.23;29.62;100956.81;4411610;32;20121;-91
2021/07/08 08:49:04;;;;;;;5.70;4.12;;;;;;;31.43;30.91;100964.38;4397515;32;20131;-91
2021/07/08 08:51:30;;;;;;;8.20;4.72;;;;;;;31.55;30.75;100964.78;4410121;32;20147;-90
2021/07/08 08:53:56;;;;;;;5.80;4.80;;;;;;;31.68;30.07;100964.59;4408899;32;20037;-91
2021/07/08 08:56:22;;;;;;;6.60;4.85;;;;;;;31.63;30.01;100965.56;4402703;32;20072;-92
2021/07/08 08:58:48;;;;;;;7.53;4.70;;;;;;;32.47;28.97;100965.72;4409813;32;20078;-91
2021/07/08 09:01:16;;;;;;;9.30;4.60;;;;;;;32.60;28.95;100968.38;4403779;32;20084;-91
2021/07/08 09:03:43;;;;;;;8.45;4.80;;;;;;;33.25;28.10;100975.09;4399546;32;20436;-90
2021/07/08 09:06:11;;;;;;;6.87;5.50;;;;;;;33.21;27.91;100968.91;4393557;32;20103;-91
2021/07/08 09:08:39;;;;;;;5.35;4.07;;;;;;;33.90;26.74;100967.84;4407266;32;20143;-90
2021/07/08 09:11:15;;;;;;;6.30;4.28;;;;;;;34.08;26.57;100969.44;4398133;32;20033;-92
2021/07/08 09:21:36;;;;;;;7.73;4.57;;;;;;;33.60;26.79;100981.91;3986071;31;15015709;-77
2021/07/08 09:26:43;;;;;;;10.82;4.45;;;;;;;34.14;26.07;100987.50;3949235;32;15722784;-77
2021/07/08 09:29:12;;;;;;;6.68;3.50;;;;;;;34.14;26.07;100987.50;4418807;32;20041;-79
2021/07/08 09:31:38;;;;;;;7.35;4.00;;;;;;;34.24;26.27;100982.50;4420174;32;20103;-76
2021/07/08 09:34:13;;;;;;;6.70;3.72;;;;;;;34.33;25.89;100978.16;4406207;32;20096;-76
2021/07/08 09:36:39;;;;;;;4.97;3.80;;;;;;;34.12;26.13;100981.47;4420910;32;20199;-75
2021/07/08 09:39:07;;;;;;;8.30;5.50;;;;;;;34.05;26.12;100987.41;4416451;32;20458;-78
2021/07/08 09:41:33;;;;;;;6.25;4.28;;;;;;;33.93;26.11;100984.19;4417807;32;20465;-76
2021/07/08 09:43:58;;;;;;;8.55;3.58;;;;;;;33.80;26.39;100980.75;4417363;32;20097;-74
2021/07/08 09:46:35;;;;;;;6.32;3.87;;;;;;;33.35;27.10;100986.91;4412115;32;20124;-77
2021/07/08 09:49:08;;;;;;;5.72;3.92;;;;;;;33.98;26.34;100985.31;4397265;32;20127;-76
2021/07/08 09:51:35;;;;;;;7.50;3.95;;;;;;;34.25;26.09;100995.00;4402324;32;21855;-75
2021/07/08 09:54:07;;;;;;;6.82;3.83;;;;;;;34.29;26.05;100986.56;4411488;32;20548;-77
2021/07/08 09:56:43;;;;;;;6.72;3.33;;;;;;;33.84;26.45;100987.72;4414484;32;20089;-76
2021/07/08 09:59:09;;;;;;;6.15;3.65;;;;;;;34.85;25.53;100979.72;4417167;32;20088;-79
2021/07/08 10:01:34;;;;;;;7.70;3.90;;;;;;;34.97;25.38;100985.84;4407915;32;20111;-77
2021/07/08 10:04:00;;;;;;;7.12;3.53;;;;;;;35.17;24.41;100990.44;4390190;32;20108;-78
2021/07/08 10:06:27;;;;;;;5.20;3.30;;;;;;;36.01;23.57;101001.06;4399732;32;20101;-75
2021/07/08 10:08:54;;;;;;;5.25;3.40;;;;;;;35.50;23.37;100995.44;4400794;32;20187;-77
2021/07/08 10:11:20;;;;;;;9.05;4.00;;;;;;;35.80;23.37;100994.97;4400713;32;20081;-77
2021/07/08 10:13:46;;;;;;;5.93;3.25;;;;;;;35.66;23.92;100993.81;4402670;32;21383;-75
2021/07/08 10:16:14;;;;;;;4.87;3.53;;;;;;;35.80;23.77;101003.75;4397433;32;20780;-79
2021/07/08 10:18:42;;;;;;;4.82;3.30;;;;;;;36.07;23.27;101010.34;4402963;32;20053;-78
2021/07/08 10:21:09;;;;;;;7.03;3.28;;;;;;;35.82;24.20;101018.56;4401396;32;20478;-79
2021/07/08 10:23:37;;;;;;;5.07;3.97;;;;;;;35.14;25.21;101017.97;4400633;32;20565;-77
2021/07/08 10:26:05;;;;;;;5.12;3.55;;;;;;;33.84;26.92;101022.78;4400452;32;20093;-74
2021/07/08 10:28:33;;;;;;;6.78;4.07;;;;;;;33.08;27.65;101027.50;4387798;32;20448;-75
2021/07/08 10:31:00;;;;;;;5.95;4.07;;;;;;;33.07;27.84;101019.34;4399000;32;20065;-74
2021/07/08 10:33:26;;;;;;;7.30;3.80;;;;;;;32.87;28.05;101018.25;4399483;32;20929;-75
2021/07/08 10:35:53;;;;;;;10.52;4.10;;;;;;;32.99;27.75;101018.59;4400577;32;20113;-76
2021/07/08 10:38:40;;;;;;;6.37;3.45;;;;;;;33.38;27.25;101023.69;4391289;32;20073;-76
2021/07/08 10:43:48;;;;;;;4.18;3.08;;;;;;;36.33;22.49;101025.53;3974327;32;15026119;-74
2021/07/08 10:46:17;;;;;;;3.97;3.28;;;;;;;36.33;22.49;101025.53;4412336;32;20127;-77
2021/07/08 10:48:47;;;;;;;3.87;2.55;;;;;;;36.02;22.55;101020.19;4427083;32;20048;-77
2021/07/08 10:57:01;;;;;;;6.53;3.00;;;;;;;35.98;22.83;101028.66;3975195;32;15023090;-78
2021/07/08 10:59:42;;;;;;;3.92;2.90;;;;;;;35.98;22.83;101028.66;4421078;32;20096;-77
2021/07/08 11:02:09;;;;;;;8.02;3.00;;;;;;;36.41;22.58;101023.25;4431459;32;20070;-75
2021/07/08 11:04:46;;;;;;;5.10;2.90;;;;;;;36.60;21.05;101032.06;4429319;32;20092;-78
2021/07/08 11:07:19;;;;;;;3.90;2.53;;;;;;;37.59;20.57;101033.13;4423745;32;21171;-77
2021/07/08 11:10:05;;;;;;;3.95;3.42;;;;;;;38.15;20.65;101027.66;4429762;32;20018;-77
2021/07/08 11:12:34;;;;;;;5.68;3.17;;;;;;;38.01;20.58;101026.63;4428956;32;20079;-77
2021/07/08 11:15:02;;;;;;;4.25;2.97;;;;;;;37.16;21.63;101030.56;4433436;32;20080;-77
2021/07/08 11:17:38;;;;;;;6.40;3.33;;;;;;;36.74;22.57;101021.44;4429143;32;20308;-76
2021/07/08 11:20:26;;;;;;;4.53;2.90;;;;;;;37.03;21.74;101025.94;4427638;32;20077;-76
2021/07/08 11:22:52;;;;;;;5.75;2.95;;;;;;;37.70;20.82;101022.91;4435078;32;20494;-74
2021/07/08 11:25:18;;;;;;;5.75;3.00;;;;;;;37.57;21.00;101021.22;4430021;32;20073;-74
2021/07/08 11:27:45;;;;;;;5.97;3.12;;;;;;;37.81;20.25;101022.22;4425807;32;20081;-75
2021/07/08 11:32:52;;;;;;;4.68;2.58;;;;;;;39.90;17.74;101010.94;3976307;32;15022355;-80
2021/07/08 11:35:26;;;;;;;4.30;2.42;;;;;;;39.90;17.74;101010.94;4434114;32;20084;-75
2021/07/08 11:40:42;;;;;;;5.28;2.78;;;;;;;39.02;18.86;101020.56;3977600;32;15022919;-76
2021/07/08 11:45:54;;;;;;;4.50;3.15;;;;;;;38.13;20.20;101015.78;3975932;32;15022336;-76
2021/07/08 11:51:11;;;;;;;8.98;2.90;;;;;;;37.52;20.97;101004.69;3981788;32;15023542;-75